createdAt,value
2022-12-29T00:05:14.420Z,49.6
2022-12-29T00:10:33.179Z,50.4
2022-12-29T00:15:51.640Z,50.2
2022-12-29T00:21:10.086Z,49.5
2022-12-29T00:26:28.560Z,49.4
2022-12-29T00:31:46.935Z,49.5
2022-12-29T00:37:05.201Z,50
2022-12-29T00:42:23.380Z,50.1
2022-12-29T00:47:41.599Z,49.6
2022-12-29T00:52:59.576Z,49.9
2022-12-29T00:58:18.293Z,49.3
2022-12-29T01:03:36.518Z,50
2022-12-29T01:08:54.780Z,49.9
2022-12-29T01:14:13.255Z,49.4
2022-12-29T01:19:31.738Z,49.5
2022-12-29T01:24:50.135Z,49.9
2022-12-29T01:30:08.594Z,50.1
2022-12-29T01:35:27.388Z,49.3
2022-12-29T01:40:46.175Z,50
2022-12-29T01:46:04.818Z,50.1
2022-12-29T01:51:23.022Z,50.1
2022-12-29T01:56:41.307Z,49.4
2022-12-29T02:01:59.519Z,49.5
2022-12-29T02:07:17.905Z,49.8
2022-12-29T02:12:36.753Z,49.4
2022-12-29T02:17:55.223Z,49.5
2022-12-29T02:23:13.696Z,49.1
2022-12-29T02:28:32.723Z,49.2
2022-12-29T02:33:50.920Z,49.3
2022-12-29T02:39:09.123Z,49.4
2022-12-29T02:44:27.112Z,49.4
2022-12-29T02:49:45.300Z,50.1
2022-12-29T02:55:04.068Z,49.2
2022-12-29T03:00:22.585Z,50
2022-12-29T03:05:40.485Z,50
2022-12-29T03:10:58.709Z,49.9
2022-12-29T03:16:19.021Z,50
2022-12-29T03:21:37.222Z,49.1
2022-12-29T03:26:55.715Z,50
2022-12-29T03:32:13.714Z,50.1
2022-12-29T03:37:32.501Z,49.9
2022-12-29T03:42:50.987Z,49.2
2022-12-29T03:48:09.520Z,49.2
2022-12-29T03:53:28.002Z,50
2022-12-29T03:58:46.749Z,50.1
2022-12-29T04:04:05.030Z,49.2
2022-12-29T04:09:23.499Z,49.1
2022-12-29T04:14:42.266Z,49.8
2022-12-29T04:20:00.818Z,49.5
2022-12-29T04:25:19.303Z,49.9
2022-12-29T04:30:37.488Z,49.9
2022-12-29T04:35:55.781Z,49.3
2022-12-29T04:41:13.682Z,49.1
2022-12-29T04:46:31.759Z,49.2
2022-12-29T04:51:50.030Z,49.1
2022-12-29T04:57:08.214Z,49.1
2022-12-29T05:02:26.825Z,50
2022-12-29T05:07:45.256Z,49.5
2022-12-29T05:13:03.173Z,49.1
2022-12-29T05:18:21.650Z,49.1
2022-12-29T05:23:40.093Z,49.9
2022-12-29T05:28:58.412Z,49.8
2022-12-29T05:34:16.626Z,49.6
2022-12-29T05:39:34.893Z,49.5
2022-12-29T05:44:53.365Z,49.8
2022-12-29T05:50:11.836Z,49
2022-12-29T05:55:29.805Z,49.1
2022-12-29T06:00:47.733Z,49.2
2022-12-29T06:06:06.477Z,49.5
2022-12-29T06:11:24.742Z,49.4
2022-12-29T06:16:43.549Z,49.1
2022-12-29T06:22:01.678Z,49
2022-12-29T06:27:19.906Z,49.8
2022-12-29T06:32:38.096Z,49.7
2022-12-29T06:37:56.871Z,49
2022-12-29T06:43:15.389Z,49
2022-12-29T06:48:33.292Z,49
2022-12-29T06:53:51.774Z,49.7
2022-12-29T06:59:10.289Z,49.6
2022-12-29T07:04:28.767Z,49.8
2022-12-29T07:09:46.959Z,49.7
2022-12-29T07:15:05.263Z,49.2
2022-12-29T07:20:28.050Z,48.8
2022-12-29T07:25:46.816Z,48.6
2022-12-29T07:31:05.350Z,48.3
2022-12-29T07:36:26.972Z,48.3
2022-12-29T07:41:47.797Z,48.3
2022-12-29T07:47:06.158Z,49.2
2022-12-29T07:52:24.674Z,49
2022-12-29T07:57:42.842Z,48.4
2022-12-29T08:03:01.657Z,48.4
2022-12-29T08:08:19.863Z,49.2
2022-12-29T08:13:37.768Z,49
2022-12-29T08:18:55.747Z,48.8
2022-12-29T08:24:13.926Z,49.2
2022-12-29T08:29:32.452Z,48.3
2022-12-29T08:34:51.263Z,48.3
2022-12-29T08:40:09.455Z,48.7
2022-12-29T08:45:27.929Z,48.8
2022-12-29T08:50:46.460Z,48.7
2022-12-29T08:56:06.643Z,47.9
2022-12-29T09:01:25.033Z,48.1
2022-12-29T09:06:43.807Z,47.8
2022-12-29T09:12:02.360Z,47.8
2022-12-29T09:17:20.845Z,48.2
2022-12-29T09:22:39.109Z,48.2
2022-12-29T09:27:57.577Z,48.2
2022-12-29T09:33:16.318Z,48.1
2022-12-29T09:38:34.876Z,47.5
2022-12-29T09:43:53.626Z,48.2
2022-12-29T09:49:12.094Z,48.1
2022-12-29T09:54:30.899Z,47.5
2022-12-29T09:59:49.384Z,47.7
2022-12-29T10:05:08.135Z,48
2022-12-29T10:10:26.716Z,48
2022-12-29T10:15:45.452Z,48
2022-12-29T10:21:03.964Z,47.7
2022-12-29T10:26:22.589Z,47.2
2022-12-29T10:31:41.395Z,47.1
2022-12-29T10:36:59.889Z,47.9
2022-12-29T10:42:18.187Z,48
2022-12-29T10:47:36.099Z,47.3
2022-12-29T10:52:54.012Z,47.3
2022-12-29T10:58:12.824Z,47.4
2022-12-29T11:03:31.101Z,47.4
2022-12-29T11:08:49.356Z,48.1
2022-12-29T11:14:07.594Z,48.2
2022-12-29T11:19:26.053Z,47.6
2022-12-29T11:24:44.827Z,47.4
2022-12-29T11:30:03.078Z,48.2
2022-12-29T11:35:21.545Z,48.2
2022-12-29T11:40:40.301Z,48.1
2022-12-29T11:45:59.034Z,47.9
2022-12-29T11:51:25.981Z,47.4
2022-12-29T11:56:43.874Z,47.5
2022-12-29T12:02:03.423Z,48
2022-12-29T12:07:21.872Z,47.7
2022-12-29T12:12:40.078Z,48.2
2022-12-29T12:17:58.336Z,48.3
2022-12-29T12:23:16.571Z,48.5
2022-12-29T12:28:37.894Z,48.4
2022-12-29T12:33:56.432Z,47.6
2022-12-29T12:39:15.173Z,48
2022-12-29T12:44:33.385Z,48.2
2022-12-29T12:49:52.044Z,48.5
2022-12-29T12:55:10.520Z,47.9
2022-12-29T13:00:29.302Z,47.4
2022-12-29T13:05:47.530Z,48.2
2022-12-29T13:11:05.976Z,47.5
2022-12-29T13:16:24.742Z,48.3
2022-12-29T13:21:44.741Z,47.4
2022-12-29T13:27:06.054Z,48.1
2022-12-29T13:32:24.876Z,47.4
2022-12-29T13:37:43.676Z,47.7
2022-12-29T13:43:02.470Z,48
2022-12-29T13:48:20.700Z,48.1
2022-12-29T13:53:39.218Z,47.7
2022-12-29T13:58:57.402Z,47.2
2022-12-29T14:04:15.662Z,47.6
2022-12-29T14:09:36.390Z,47.8
2022-12-29T14:14:54.569Z,48.1
2022-12-29T14:20:13.046Z,47.4
2022-12-29T14:25:31.290Z,47.3
2022-12-29T14:30:50.016Z,47.7
2022-12-29T14:36:07.953Z,47.5
2022-12-29T14:41:25.902Z,48.2
2022-12-29T14:46:45.769Z,48.2
2022-12-29T14:52:03.942Z,47.5
2022-12-29T14:57:22.476Z,47.9
2022-12-29T15:02:41.543Z,47.5
2022-12-29T15:08:00.143Z,47.6
2022-12-29T15:13:18.700Z,47.7
2022-12-29T15:18:36.654Z,48
2022-12-29T15:23:54.873Z,48.4
2022-12-29T15:29:13.543Z,48.1
2022-12-29T15:34:32.220Z,47.9
2022-12-29T15:39:50.615Z,47.7
2022-12-29T15:45:12.384Z,48.5
2022-12-29T15:50:30.868Z,48
2022-12-29T15:55:49.627Z,48.4
2022-12-29T16:01:08.195Z,47.9
2022-12-29T16:06:26.430Z,47.8
2022-12-29T16:11:44.921Z,48.5
2022-12-29T16:17:03.492Z,47.9
2022-12-29T16:22:21.440Z,47.8
2022-12-29T16:27:39.632Z,48.2
2022-12-29T16:32:57.610Z,48.6
2022-12-29T16:38:15.509Z,48.4
2022-12-29T16:43:34.269Z,48.3
2022-12-29T16:48:52.838Z,48.6
2022-12-29T16:54:11.076Z,48
2022-12-29T16:59:29.561Z,48.2
2022-12-29T17:04:47.813Z,49
2022-12-29T17:10:05.993Z,48.3
2022-12-29T17:15:24.180Z,48.6
2022-12-29T17:20:43.015Z,47.9
2022-12-29T17:26:01.480Z,48.7
2022-12-29T17:31:20.530Z,48.7
2022-12-29T17:36:39.111Z,48.8
2022-12-29T17:41:57.576Z,48.8
2022-12-29T17:47:16.082Z,49.1
2022-12-29T17:52:34.255Z,48.3
2022-12-29T17:57:52.739Z,49.1
2022-12-29T18:03:11.767Z,49.3
2022-12-29T18:08:30.183Z,48.8
2022-12-29T18:13:48.934Z,49.5
2022-12-29T18:19:06.866Z,49.6
2022-12-29T18:24:25.122Z,50
2022-12-29T18:29:43.574Z,49.5
2022-12-29T18:35:02.367Z,51.5
2022-12-29T18:40:05.254Z,51.7
2022-12-29T18:45:23.725Z,51.2
2022-12-29T18:50:41.934Z,50.8
2022-12-29T18:56:00.555Z,52.3
2022-12-29T19:01:19.546Z,51.8
2022-12-29T19:06:37.886Z,52.2
2022-12-29T19:11:55.912Z,52
2022-12-29T19:17:14.089Z,51
2022-12-29T19:22:32.273Z,51.5
2022-12-29T19:27:50.529Z,50.9
2022-12-29T19:32:53.364Z,50.6
2022-12-29T19:38:11.572Z,50.5
2022-12-29T19:43:29.834Z,51.3
2022-12-29T19:48:48.615Z,51.2
2022-12-29T19:54:06.797Z,50.9
2022-12-29T19:59:25.372Z,50.4
2022-12-29T20:04:43.836Z,50.7
2022-12-29T20:10:02.324Z,50.5
2022-12-29T20:15:20.852Z,51
2022-12-29T20:20:39.010Z,50.6
2022-12-29T20:25:57.118Z,50.5
2022-12-29T20:31:15.330Z,51.5
2022-12-29T20:36:33.565Z,51.5
2022-12-29T20:41:52.163Z,50.7
2022-12-29T20:47:10.669Z,51.6
2022-12-29T20:52:28.865Z,51.1
2022-12-29T20:58:25.773Z,51.5
2022-12-29T21:03:44.508Z,51.6
2022-12-29T21:09:02.453Z,51
2022-12-29T21:14:20.929Z,51.2
2022-12-29T21:19:23.923Z,50.9
2022-12-29T21:24:42.639Z,51.1
2022-12-29T21:30:01.434Z,50.6
2022-12-29T21:35:20.258Z,50.7
2022-12-29T21:40:38.723Z,50.9
2022-12-29T21:45:57.041Z,50.6
2022-12-29T21:51:15.112Z,51.2
2022-12-29T21:56:33.262Z,50.6
2022-12-29T22:01:52.701Z,51.5
2022-12-29T22:07:11.014Z,51
2022-12-29T22:12:29.492Z,51.7
2022-12-29T22:17:50.108Z,51.1
2022-12-29T22:23:09.202Z,51.7
2022-12-29T22:28:27.671Z,51.7
2022-12-29T22:33:45.866Z,51
2022-12-29T22:39:04.414Z,51.3
2022-12-29T22:44:22.919Z,51.1
2022-12-29T22:49:41.399Z,52.1
2022-12-29T22:55:07.875Z,51.2
2022-12-29T23:00:26.135Z,52.1
2022-12-29T23:05:44.868Z,51.7
2022-12-29T23:11:03.081Z,51.1
2022-12-29T23:16:21.610Z,51.9
2022-12-29T23:21:40.223Z,52.2
2022-12-29T23:26:58.787Z,52.4
2022-12-29T23:32:17.540Z,51.5
2022-12-29T23:37:35.738Z,52.2
2022-12-29T23:42:53.981Z,51.3
2022-12-29T23:48:12.449Z,51.2
2022-12-29T23:53:15.304Z,51.9
2022-12-29T23:58:33.286Z,51.6
